Flood From: 17-02-2018 16:00 Until: 18-02-2018 16:00 warning for: Flood Level: Yellow info button

Although rather usual in this region, locally or potentially dangerous phenomena are expected. (such as local winds, summer thunderstorms, rising streams or high waves) Be aware and pay attention to the latest weather updates, especially if you carry out activities exposed to weather or close to a stream or shoreline. 


Meteo18 Weather Cam more information Meteo18 Weather Cam


Thunder radar more information blitzortung!


Rain radar more information rain snow radar


Visit our other weather sites:

Template documentation
and downloads

And another site



Weather Underground History page Text

Daily Summary for December 27, 2017 Units:  English    Metric   Both
« Previous Day
Next Day »
Daily Weekly Monthly Yearly Custom
  High: Low: Average:
Temperature: TemperatureC °F 2.1 °F 4.3 °F
Dew Point: DewpointC °F 0.0 °F 2.4 °F
Humidity: Humidity % 76 % 87 %
Wind Speed: WindSpeedKMH mph 1.6 mph 15.2 mph
Wind Gust: WindSpeedGustKMH mph - -
Wind:- - WSW
Pressure: PressurehPa in 987.0 in -
Precipitation: 4.1 in    
Historical Graphs
 
 
Tabular Data for December 27, 2017
Time Temperature Dew Point Pressure Wind Wind Speed Wind Gust Humidity Rainfall Rate (Hourly)
TemperatureC °F DewpointC °F PressurehPa in Calm     Humidity % HourlyPrecipMM in
00:02 6.0 °F 3.3 °F 993.8 in SSE 9.7 mph 17.7 mph 83 % 0.3 in
00:12 6.0 °F 3.3 °F 993.5 in SSE 4.8 mph 20.9 mph 83 % 0.5 in
00:17 5.9 °F 3.4 °F 993.5 in South 9.7 mph 20.9 mph 84 % 0.5 in
00:22 6.0 °F 3.5 °F 993.1 in SSW 8.0 mph 24.1 mph 84 % 0.5 in
00:27 6.0 °F 3.3 °F 993.1 in South 17.7 mph 24.1 mph 83 % 0.5 in
00:32 6.1 °F 3.4 °F 992.8 in South 8.0 mph 24.1 mph 83 % 0.5 in
00:37 6.2 °F 3.4 °F 992.4 in South 14.5 mph 22.5 mph 82 % 0.5 in
00:47 6.3 °F 3.5 °F 992.4 in SW 20.9 mph 22.5 mph 82 % 0.5 in
00:52 6.4 °F 3.4 °F 992.1 in South 9.7 mph 27.4 mph 81 % 0.5 in
01:02 6.1 °F 3.6 °F 991.8 in SSW 12.9 mph 27.4 mph 84 % 0.5 in
01:12 5.8 °F 3.6 °F 991.8 in SSW 14.5 mph 27.4 mph 86 % 0.8 in
01:17 5.8 °F 3.6 °F 991.4 in South 11.3 mph 20.9 mph 86 % 0.5 in
01:22 5.8 °F 3.8 °F 991.4 in South 9.7 mph 20.9 mph 87 % 0.5 in
01:27 5.8 °F 3.8 °F 991.1 in South 11.3 mph 22.5 mph 87 % 0.5 in
01:32 5.8 °F 3.8 °F 991.1 in SSW 11.3 mph 22.5 mph 87 % 0.5 in
01:37 5.7 °F 3.7 °F 991.1 in South 12.9 mph 24.1 mph 87 % 0.5 in
01:47 5.8 °F 3.8 °F 990.7 in SSW 16.1 mph 22.5 mph 87 % 0.8 in
01:52 5.8 °F 3.8 °F 990.7 in South 12.9 mph 22.5 mph 87 % 0.8 in
01:57 5.9 °F 3.7 °F 990.4 in SSW 12.9 mph 24.1 mph 86 % 0.5 in
02:02 6.0 °F 3.7 °F 990.4 in South 19.3 mph 24.1 mph 85 % 0.5 in
02:07 6.0 °F 3.8 °F 990.4 in SSE 11.3 mph 27.4 mph 86 % 0.5 in
02:12 6.1 °F 3.8 °F 990.1 in South 8.0 mph 27.4 mph 85 % 0.5 in
02:17 6.0 °F 3.8 °F 990.1 in SSW 9.7 mph 30.6 mph 86 % 0.5 in
02:22 6.0 °F 3.8 °F 990.1 in SSW 9.7 mph 30.6 mph 86 % 0.5 in
02:27 5.9 °F 3.7 °F 989.7 in SSW 4.8 mph 25.7 mph 86 % 0.5 in
02:32 5.9 °F 3.7 °F 989.7 in SSW 9.7 mph 25.7 mph 86 % 0.5 in
02:42 6.1 °F 3.8 °F 989.7 in South 12.9 mph 24.1 mph 85 % 0.5 in
02:47 6.2 °F 3.7 °F 989.4 in South 14.5 mph 29.0 mph 84 % 0.5 in
02:57 6.3 °F 3.8 °F 989.4 in SSW 12.9 mph 24.1 mph 84 % 0.5 in
03:02 6.3 °F 3.8 °F 989.1 in SW 14.5 mph 24.1 mph 84 % 0.5 in
03:07 6.4 °F 3.7 °F 989.1 in South 16.1 mph 25.7 mph 83 % 0.3 in
03:12 6.4 °F 3.7 °F 989.1 in SW 17.7 mph 25.7 mph 83 % 0.3 in
03:17 6.4 °F 3.7 °F 989.1 in SSW 16.1 mph 30.6 mph 83 % 0.3 in
03:22 6.4 °F 3.6 °F 989.1 in SW 20.9 mph 30.6 mph 82 % 0.3 in
03:27 6.5 °F 3.6 °F 989.4 in SSW 14.5 mph 27.4 mph 82 % 0.0 in
03:32 6.6 °F 3.7 °F 989.1 in SSW 22.5 mph 27.4 mph 82 % 0.0 in
03:37 6.5 °F 3.6 °F 989.1 in South 17.7 mph 32.2 mph 82 % 0.0 in
03:42 6.3 °F 3.8 °F 989.1 in SSW 22.5 mph 32.2 mph 84 % 0.0 in
03:52 6.1 °F 3.8 °F 989.1 in SSW 20.9 mph 35.4 mph 85 % 0.3 in
03:57 6.0 °F 4.0 °F 989.1 in SW 16.1 mph 35.4 mph 87 % 0.5 in
04:02 5.8 °F 4.0 °F 989.1 in SW 14.5 mph 35.4 mph 88 % 0.5 in
04:12 5.7 °F 4.0 °F 989.1 in SSW 9.7 mph 30.6 mph 89 % 0.5 in
04:17 5.6 °F 4.1 °F 988.7 in SW 12.9 mph 24.1 mph 90 % 0.5 in
04:27 5.5 °F 4.0 °F 988.7 in SSW 14.5 mph 22.5 mph 90 % 0.8 in
04:32 5.6 °F 4.1 °F 988.7 in SW 19.3 mph 22.5 mph 90 % 0.8 in
04:37 5.6 °F 3.9 °F 988.7 in WSW 9.7 mph 25.7 mph 89 % 0.8 in
04:42 5.7 °F 4.0 °F 988.7 in SW 16.1 mph 25.7 mph 89 % 0.8 in
04:47 5.6 °F 3.9 °F 988.4 in WSW 8.0 mph 25.7 mph 89 % 0.8 in
04:52 5.6 °F 3.9 °F 988.4 in SW 11.3 mph 25.7 mph 89 % 0.8 in
05:02 5.6 °F 3.9 °F 988.4 in SW 8.0 mph 16.1 mph 89 % 0.5 in
05:12 5.7 °F 4.0 °F 988.0 in WSW 12.9 mph 16.1 mph 89 % 0.8 in
05:22 5.8 °F 3.8 °F 988.0 in WSW 8.0 mph 16.1 mph 87 % 0.8 in
05:32 5.9 °F 3.7 °F 987.7 in South 9.7 mph 19.3 mph 86 % 0.5 in
05:42 5.9 °F 3.7 °F 987.7 in SW 12.9 mph 22.5 mph 86 % 0.5 in
05:52 6.1 °F 3.9 °F 987.4 in SW 17.7 mph 22.5 mph 86 % 0.5 in
05:57 6.1 °F 3.9 °F 987.4 in SSW 12.9 mph 30.6 mph 86 % 0.3 in
06:02 6.1 °F 3.9 °F 987.4 in SW 22.5 mph 30.6 mph 86 % 0.3 in
06:12 6.2 °F 4.0 °F 987.4 in SW 27.4 mph 35.4 mph 86 % 0.0 in
06:17 6.2 °F 4.0 °F 987.4 in South 19.3 mph 35.4 mph 86 % 0.0 in
06:22 6.2 °F 4.0 °F 987.4 in SW 16.1 mph 35.4 mph 86 % 0.0 in
06:32 6.2 °F 4.0 °F 987.0 in SSW 12.9 mph 37.0 mph 86 % 0.0 in
06:42 6.2 °F 4.0 °F 987.0 in South 14.5 mph 37.0 mph 86 % 0.0 in
06:52 6.1 °F 4.1 °F 987.0 in South 30.6 mph 30.6 mph 87 % 0.0 in
06:57 6.1 °F 4.3 °F 987.0 in SSW 17.7 mph 30.6 mph 88 % 0.0 in
07:02 6.0 °F 4.2 °F 987.0 in SW 22.5 mph 40.2 mph 88 % 0.3 in
07:12 5.8 °F 4.3 °F 987.0 in SSW 29.0 mph 40.2 mph 90 % 0.3 in
07:17 5.8 °F 4.3 °F 987.0 in SSW 22.5 mph 40.2 mph 90 % 0.3 in
07:22 5.7 °F 4.2 °F 987.4 in SSW 9.7 mph 35.4 mph 90 % 0.3 in
07:32 5.7 °F 4.2 °F 987.4 in SW 8.0 mph 35.4 mph 90 % 0.3 in
07:37 5.6 °F 4.1 °F 987.4 in SW 8.0 mph 25.7 mph 90 % 0.3 in
07:42 5.6 °F 4.1 °F 987.4 in SW 14.5 mph 25.7 mph 90 % 0.3 in
07:47 5.5 °F 4.0 °F 987.4 in SW 6.4 mph 19.3 mph 90 % 0.3 in
07:57 5.3 °F 3.8 °F 987.4 in SW 8.0 mph 19.3 mph 90 % 0.3 in
08:07 4.9 °F 3.6 °F 987.4 in SSW 4.8 mph 12.9 mph 91 % 0.0 in
08:17 4.7 °F 3.4 °F 987.7 in SSW 1.6 mph 11.3 mph 91 % 0.0 in
08:22 4.6 °F 3.4 °F 987.7 in SW 3.2 mph 11.3 mph 92 % 0.0 in
08:27 4.6 °F 3.4 °F 987.7 in SW 1.6 mph 11.3 mph 92 % 0.0 in
08:37 4.4 °F 3.2 °F 987.7 in SW 3.2 mph 8.0 mph 92 % 0.0 in
08:47 4.4 °F 3.2 °F 987.4 in South 3.2 mph 8.0 mph 92 % 0.0 in
08:52 4.3 °F 3.1 °F 987.4 in SSW 4.8 mph 6.4 mph 92 % 0.0 in
08:57 4.3 °F 3.3 °F 987.4 in South 3.2 mph 6.4 mph 93 % 0.0 in
09:07 4.2 °F 3.2 °F 987.4 in SSW 4.8 mph 8.0 mph 93 % 0.0 in
09:12 4.3 °F 3.3 °F 987.4 in SSW 4.8 mph 8.0 mph 93 % 0.0 in
09:22 4.4 °F 3.5 °F 987.4 in South 4.8 mph 6.4 mph 94 % 0.0 in
09:27 4.4 °F 3.5 °F 987.4 in SW 3.2 mph 6.4 mph 94 % 0.0 in
09:32 4.5 °F 3.5 °F 987.4 in SSW 3.2 mph 9.7 mph 93 % 0.0 in
09:42 4.7 °F 3.7 °F 987.4 in SSW 9.7 mph 9.7 mph 93 % 0.0 in
09:47 4.8 °F 3.6 °F 987.4 in SSW 11.3 mph 11.3 mph 92 % 0.0 in
09:52 4.8 °F 3.6 °F 987.4 in SW 14.5 mph 16.1 mph 92 % 0.0 in
10:02 5.0 °F 3.8 °F 987.4 in SW 14.5 mph 22.5 mph 92 % 0.0 in
10:07 5.1 °F 3.9 °F 987.4 in SSW 9.7 mph 22.5 mph 92 % 0.0 in
10:17 5.1 °F 4.1 °F 987.4 in West 8.0 mph 22.5 mph 93 % 0.0 in
10:22 5.1 °F 4.1 °F 987.4 in SW 17.7 mph 22.5 mph 93 % 0.0 in
10:32 5.2 °F 4.0 °F 987.4 in SW 16.1 mph 25.7 mph 92 % 0.0 in
10:42 5.2 °F 4.2 °F 987.7 in SW 20.9 mph 25.7 mph 93 % 0.0 in
10:52 5.3 °F 4.1 °F 987.7 in SW 24.1 mph 24.1 mph 92 % 0.0 in
11:02 5.4 °F 4.0 °F 988.0 in SSW 11.3 mph 29.0 mph 91 % 0.0 in
11:13 5.4 °F 3.7 °F 987.4 in SSW 22.7 mph 22.7 mph 89 % 0.0 in
11:19 5.4 °F 3.6 °F 987.4 in WSW 11.1 mph 30.6 mph 88 % 0.3 in
11:21 5.4 °F 3.6 °F 987.4 in WSW 4.7 mph 17.7 mph 88 % 0.3 in
11:33 5.3 °F 3.5 °F 987.7 in WSW 28.8 mph 29.0 mph 88 % 0.0 in
11:39 5.3 °F 3.0 °F 987.4 in West 22.7 mph 32.2 mph 85 % 0.0 in
11:45 5.3 °F 3.1 °F 987.4 in WSW 13.0 mph 30.6 mph 86 % 0.0 in
11:51 5.3 °F 3.0 °F 987.4 in West 11.1 mph 22.5 mph 85 % 0.0 in
11:55 5.3 °F 3.0 °F 987.4 in West 24.1 mph 27.4 mph 85 % 0.0 in
12:01 5.3 °F 3.0 °F 987.4 in West 19.5 mph 25.7 mph 85 % 0.0 in
12:07 5.3 °F 3.0 °F 987.4 in West 17.7 mph 19.3 mph 85 % 0.0 in
12:13 5.2 °F 3.1 °F 987.4 in WNW 16.3 mph 27.4 mph 86 % 0.0 in
12:19 5.1 °F 2.8 °F 987.4 in West 22.7 mph 30.6 mph 85 % 0.0 in
12:25 5.1 °F 3.0 °F 987.7 in WNW 13.0 mph 27.4 mph 86 % 0.0 in
12:31 4.9 °F 2.8 °F 987.7 in West 33.8 mph 33.8 mph 86 % 0.0 in
12:37 4.8 °F 2.8 °F 987.7 in West 16.3 mph 35.4 mph 87 % 0.0 in
12:39 4.7 °F 2.9 °F 988.0 in WSW 20.9 mph 29.0 mph 88 % 0.0 in
12:45 4.4 °F 2.6 °F 987.7 in West 37.0 mph 40.2 mph 88 % 0.0 in
12:51 4.2 °F 2.7 °F 988.0 in WNW 17.7 mph 29.0 mph 90 % 0.0 in
12:57 3.9 °F 2.6 °F 988.0 in West 13.0 mph 29.0 mph 91 % 0.0 in
13:03 3.8 °F 2.5 °F 988.4 in WNW 14.3 mph 30.6 mph 91 % 0.3 in
13:09 3.6 °F 2.1 °F 988.4 in WSW 27.4 mph 32.2 mph 90 % 0.3 in
13:15 3.5 °F 2.2 °F 988.7 in WSW 27.4 mph 29.0 mph 91 % 0.3 in
13:21 3.6 °F 2.3 °F 988.7 in West 27.4 mph 33.8 mph 91 % 0.3 in
13:25 3.6 °F 2.3 °F 988.7 in West 14.3 mph 33.8 mph 91 % 0.5 in
13:31 3.6 °F 2.1 °F 988.7 in West 16.3 mph 27.4 mph 90 % 0.5 in
13:37 3.7 °F 2.2 °F 988.7 in WNW 19.5 mph 33.8 mph 90 % 0.5 in
13:43 3.8 °F 2.2 °F 989.1 in West 16.3 mph 30.6 mph 89 % 0.5 in
13:49 3.8 °F 2.2 °F 989.1 in WNW 13.0 mph 25.7 mph 89 % 0.5 in
13:55 3.7 °F 2.2 °F 989.1 in West 7.9 mph 25.7 mph 90 % 0.5 in
14:01 3.8 °F 2.3 °F 989.1 in West 11.1 mph 27.4 mph 90 % 0.5 in
14:09 3.7 °F 2.2 °F 989.4 in West 17.7 mph 22.5 mph 90 % 0.5 in
14:13 3.6 °F 2.1 °F 989.4 in SW 22.7 mph 25.7 mph 90 % 0.5 in
14:19 3.6 °F 2.1 °F 989.7 in West 14.3 mph 24.1 mph 90 % 0.5 in
14:25 3.5 °F 2.0 °F 989.7 in West 24.1 mph 32.2 mph 90 % 0.5 in
14:31 3.5 °F 2.0 °F 989.7 in West 11.1 mph 35.4 mph 90 % 0.5 in
14:37 3.6 °F 2.1 °F 990.1 in West 9.7 mph 29.0 mph 90 % 0.8 in
14:43 3.7 °F 2.1 °F 990.1 in West 37.0 mph 38.6 mph 89 % 0.8 in
14:49 3.8 °F 2.0 °F 990.1 in WSW 14.3 mph 32.2 mph 88 % 0.5 in
14:55 3.8 °F 2.2 °F 990.1 in West 24.1 mph 41.8 mph 89 % 0.5 in
15:01 3.8 °F 2.0 °F 990.4 in West 17.7 mph 32.2 mph 88 % 0.5 in
15:07 3.8 °F 2.0 °F 990.7 in WNW 16.3 mph 30.6 mph 88 % 0.5 in
15:13 3.9 °F 1.9 °F 990.7 in WNW 22.7 mph 40.2 mph 87 % 0.5 in
15:17 3.9 °F 1.9 °F 991.1 in WNW 13.0 mph 30.6 mph 87 % 0.5 in
15:23 3.9 °F 1.8 °F 991.1 in WNW 14.3 mph 30.6 mph 86 % 0.5 in
15:31 3.9 °F 1.8 °F 991.4 in WNW 25.9 mph 29.0 mph 86 % 0.5 in
15:37 3.9 °F 1.6 °F 991.4 in West 11.1 mph 27.4 mph 85 % 0.3 in
15:41 3.9 °F 1.8 °F 991.4 in West 17.7 mph 27.4 mph 86 % 0.3 in
15:47 4.0 °F 1.7 °F 991.4 in WNW 20.9 mph 25.7 mph 85 % 0.5 in
15:53 3.9 °F 1.8 °F 991.8 in West 11.1 mph 17.7 mph 86 % 0.5 in
15:59 3.9 °F 1.9 °F 992.1 in WNW 16.3 mph 25.7 mph 87 % 0.5 in
16:05 3.8 °F 1.7 °F 992.1 in West 41.7 mph 49.9 mph 86 % 0.5 in
16:11 3.8 °F 1.7 °F 992.4 in West 24.1 mph 37.0 mph 86 % 0.8 in
16:17 3.7 °F 1.7 °F 992.4 in WNW 13.0 mph 27.4 mph 87 % 0.8 in
16:23 3.6 °F 1.6 °F 992.4 in WSW 13.0 mph 25.7 mph 87 % 0.8 in
16:29 3.5 °F 1.7 °F 992.8 in WNW 27.4 mph 32.2 mph 88 % 1.0 in
16:35 3.4 °F 1.6 °F 992.8 in WNW 27.4 mph 30.6 mph 88 % 1.0 in
16:41 3.4 °F 1.4 °F 992.8 in NW 27.4 mph 30.6 mph 87 % 1.0 in
16:47 3.3 °F 1.5 °F 992.8 in WNW 24.1 mph 35.4 mph 88 % 1.0 in
16:53 3.4 °F 1.4 °F 992.8 in West 27.4 mph 38.6 mph 87 % 1.0 in
16:59 3.4 °F 1.4 °F 993.1 in WNW 25.9 mph 37.0 mph 87 % 1.3 in
17:05 3.4 °F 1.3 °F 993.1 in West 19.5 mph 24.1 mph 86 % 1.0 in
17:11 3.4 °F 1.1 °F 993.1 in West 11.1 mph 27.4 mph 85 % 0.8 in
17:17 3.5 °F 1.4 °F 993.1 in West 13.0 mph 20.9 mph 86 % 0.8 in
17:23 3.6 °F 1.3 °F 993.5 in West 19.5 mph 33.8 mph 85 % 0.8 in
17:27 3.6 °F 1.3 °F 993.5 in SW 17.7 mph 35.4 mph 85 % 0.5 in
17:33 3.7 °F 0.9 °F 993.5 in NW 17.7 mph 37.0 mph 82 % 0.5 in
17:39 3.9 °F 0.8 °F 993.5 in WNW 25.9 mph 37.0 mph 80 % 0.5 in
17:45 3.8 °F 0.7 °F 993.8 in West 16.3 mph 40.2 mph 80 % 0.5 in
17:51 3.9 °F 0.8 °F 993.8 in NW 19.5 mph 38.6 mph 80 % 0.5 in
17:57 3.9 °F 0.6 °F 993.8 in West 22.7 mph 35.4 mph 79 % 0.3 in
18:03 4.0 °F 0.5 °F 994.1 in WNW 20.9 mph 35.4 mph 78 % 0.3 in
18:09 4.1 °F 0.4 °F 994.1 in WNW 24.1 mph 29.0 mph 77 % 0.3 in
18:15 4.2 °F 0.3 °F 994.5 in WNW 37.0 mph 41.8 mph 76 % 0.0 in
18:27 3.9 °F 0.6 °F 994.8 in NW 14.3 mph 40.2 mph 79 % 0.0 in
18:41 3.3 °F 0.9 °F 995.5 in West 17.7 mph 22.5 mph 84 % 0.3 in
18:47 3.3 °F 0.7 °F 995.5 in NW 16.3 mph 25.7 mph 83 % 0.3 in
18:54 3.2 °F 0.8 °F 995.8 in NW 4.7 mph 30.6 mph 84 % 0.3 in
19:02 2.9 °F 0.8 °F 995.8 in NW 4.7 mph 22.5 mph 86 % 0.3 in
19:04 2.9 °F 0.8 °F 995.8 in WNW 20.9 mph 30.6 mph 86 % 0.3 in
19:10 2.7 °F 0.9 °F 996.2 in WNW 17.7 mph 27.4 mph 88 % 0.3 in
19:16 2.5 °F 0.9 °F 996.2 in WNW 4.7 mph 19.3 mph 89 % 0.3 in
19:22 2.5 °F 0.9 °F 996.2 in West 17.7 mph 20.9 mph 89 % 0.5 in
19:28 2.5 °F 0.9 °F 996.5 in West 13.0 mph 24.1 mph 89 % 0.5 in
19:34 2.7 °F 0.9 °F 996.5 in NW 7.9 mph 22.5 mph 88 % 0.5 in
19:40 2.8 °F 0.9 °F 996.8 in WSW 7.9 mph 20.9 mph 87 % 0.5 in
19:46 2.9 °F 0.8 °F 996.8 in WNW 20.9 mph 32.2 mph 86 % 0.5 in
19:50 2.9 °F 1.0 °F 997.2 in NW 20.9 mph 33.8 mph 87 % 0.5 in
19:56 2.9 °F 1.0 °F 997.2 in WNW 32.0 mph 33.8 mph 87 % 0.5 in
20:02 2.9 °F 1.0 °F 997.5 in WSW 19.5 mph 40.2 mph 87 % 0.5 in
20:06 2.7 °F 0.9 °F 997.5 in WNW 30.6 mph 37.0 mph 88 % 0.5 in
20:12 2.5 °F 0.9 °F 997.5 in WNW 4.7 mph 32.2 mph 89 % 0.5 in
20:18 2.4 °F 0.9 °F 997.9 in WNW 3.2 mph 19.3 mph 90 % 0.0 in
20:24 2.4 °F 0.8 °F 997.9 in West 19.5 mph 24.1 mph 89 % 0.0 in
20:30 2.4 °F 0.9 °F 997.9 in West 16.3 mph 22.5 mph 90 % 0.0 in
20:36 2.4 °F 0.9 °F 997.9 in West 7.9 mph 24.1 mph 90 % 0.0 in
20:42 2.5 °F 0.9 °F 998.2 in West 19.5 mph 33.8 mph 89 % 0.0 in
20:48 2.5 °F 1.0 °F 998.2 in West 4.7 mph 20.9 mph 90 % 0.0 in
20:54 2.6 °F 1.1 °F 998.5 in West 14.3 mph 24.1 mph 90 % 0.0 in
21:00 2.6 °F 1.1 °F 998.5 in WNW 14.3 mph 14.5 mph 90 % 0.0 in
21:06 2.5 °F 1.2 °F 998.9 in NW 20.9 mph 25.7 mph 91 % 0.0 in
21:12 2.6 °F 1.3 °F 998.9 in NW 17.7 mph 24.1 mph 91 % 0.0 in
21:14 2.6 °F 1.3 °F 998.9 in NW 16.3 mph 25.7 mph 91 % 0.0 in
21:20 2.6 °F 1.1 °F 998.9 in NW 6.4 mph 20.9 mph 90 % 0.3 in
21:26 2.5 °F 0.9 °F 998.9 in WNW 14.3 mph 22.5 mph 89 % 0.3 in
21:32 2.5 °F 0.7 °F 998.9 in WNW 16.3 mph 20.9 mph 88 % 0.3 in
21:38 2.5 °F 0.7 °F 999.2 in WNW 3.2 mph 20.9 mph 88 % 0.3 in
21:44 2.5 °F 0.7 °F 999.2 in WNW 9.7 mph 27.4 mph 88 % 0.3 in
21:50 2.4 °F 0.6 °F 999.2 in WNW 16.3 mph 20.9 mph 88 % 0.3 in
21:58 2.4 °F 0.6 °F 999.2 in NNW 11.1 mph 20.9 mph 88 % 0.3 in
22:04 2.4 °F 0.5 °F 999.5 in NW 11.1 mph 27.4 mph 87 % 0.3 in
22:10 2.3 °F 0.4 °F 999.5 in WNW 11.1 mph 24.1 mph 87 % 0.3 in
22:17 2.3 °F 0.4 °F 999.9 in NNW 13.0 mph 24.1 mph 87 % 0.0 in
22:20 2.3 °F 0.4 °F 999.9 in West 11.1 mph 19.3 mph 87 % 0.0 in
22:26 2.2 °F 0.3 °F 999.9 in WNW 7.9 mph 20.9 mph 87 % 0.0 in
22:32 2.2 °F 0.3 °F 999.9 in WNW 16.3 mph 24.1 mph 87 % 0.0 in
22:34 2.2 °F 0.3 °F 1000.2 in WNW 20.9 mph 22.5 mph 87 % 0.0 in
22:40 2.2 °F 0.1 °F 1000.2 in WNW 14.3 mph 24.1 mph 86 % 0.0 in
22:46 2.2 °F 0.3 °F 1000.2 in WSW 13.0 mph 20.9 mph 87 % 0.0 in
22:52 2.1 °F 0.2 °F 1000.2 in WNW 14.3 mph 29.0 mph 87 % 0.0 in
22:58 2.2 °F 0.3 °F 1000.6 in West 11.1 mph 29.0 mph 87 % 0.0 in
23:04 2.2 °F 0.3 °F 1000.6 in WNW 19.5 mph 24.1 mph 87 % 0.0 in
23:10 2.2 °F 0.3 °F 1000.6 in West 17.7 mph 29.0 mph 87 % 0.0 in
23:18 2.2 °F 0.3 °F 1000.9 in WNW 25.9 mph 25.9 mph 87 % 0.0 in
23:24 2.2 °F 0.3 °F 1000.9 in West 13.0 mph 32.2 mph 87 % 0.0 in
23:26 2.2 °F 0.3 °F 1000.9 in WNW 13.0 mph 33.8 mph 87 % 0.0 in
23:32 2.3 °F 0.2 °F 1000.9 in NW 7.9 mph 33.8 mph 86 % 0.0 in
23:38 2.2 °F 0.1 °F 1001.2 in West 14.3 mph 25.7 mph 86 % 0.0 in
23:44 2.2 °F 0.1 °F 1001.2 in WNW 11.1 mph 24.1 mph 86 % 0.0 in
23:52 2.3 °F 0.0 °F 1001.2 in WNW 14.3 mph 20.9 mph 85 % 0.0 in
23:58 2.2 °F 0.1 °F 1001.6 in WNW 7.9 mph 17.7 mph 86 % 0.0 in
Meteo18
Compliments of Weather Underground - 4 mb

Script developed by  Jim McMurry - jmcmurry@mwt.net Adapted for the template by  Wim van der Kuil - Leuven-Template.eu

You find our weather info also at:

European Weather Network

Weather Underground

Equipment we use:

Weather-station
Davis Vue

Weather-program
Meteobridge

Weather-server
Raspberry PI 2 B+

Provider
1 and 1

Davis Vue

Meteobridge

Raspberry PI 2 B+

1 and 1